sensor_id;sensor_type;location;lat;lon;timestamp;P1;durP1;ratioP1;P2;durP2;ratioP2
64615;SDS011;51027;42.162;24.754;2022-08-21T00:02:15;19.65;;;7.05;;
64615;SDS011;51027;42.162;24.754;2022-08-21T00:04:45;18.48;;;7.18;;
64615;SDS011;51027;42.162;24.754;2022-08-21T00:07:11;20.13;;;6.65;;
64615;SDS011;51027;42.162;24.754;2022-08-21T00:09:37;19.75;;;6.80;;
64615;SDS011;51027;42.162;24.754;2022-08-21T00:12:03;20.45;;;6.60;;
64615;SDS011;51027;42.162;24.754;2022-08-21T00:14:29;18.27;;;5.38;;
64615;SDS011;51027;42.162;24.754;2022-08-21T00:16:55;17.52;;;6.50;;
64615;SDS011;51027;42.162;24.754;2022-08-21T00:19:21;18.65;;;6.13;;
64615;SDS011;51027;42.162;24.754;2022-08-21T00:21:50;17.87;;;5.90;;
64615;SDS011;51027;42.162;24.754;2022-08-21T00:24:17;18.73;;;6.05;;
64615;SDS011;51027;42.162;24.754;2022-08-21T00:26:44;18.15;;;5.82;;
64615;SDS011;51027;42.162;24.754;2022-08-21T00:29:10;17.73;;;5.75;;
64615;SDS011;51027;42.162;24.754;2022-08-21T00:31:36;19.10;;;5.72;;
64615;SDS011;51027;42.162;24.754;2022-08-21T00:34:02;20.23;;;7.05;;
64615;SDS011;51027;42.162;24.754;2022-08-21T00:36:28;19.20;;;7.10;;
64615;SDS011;51027;42.162;24.754;2022-08-21T00:38:55;18.25;;;6.05;;
64615;SDS011;51027;42.162;24.754;2022-08-21T00:41:23;21.45;;;6.90;;
64615;SDS011;51027;42.162;24.754;2022-08-21T00:43:49;19.77;;;6.20;;
64615;SDS011;51027;42.162;24.754;2022-08-21T00:46:16;19.88;;;5.93;;
64615;SDS011;51027;42.162;24.754;2022-08-21T00:48:42;15.48;;;5.28;;
64615;SDS011;51027;42.162;24.754;2022-08-21T00:51:10;18.20;;;6.00;;
64615;SDS011;51027;42.162;24.754;2022-08-21T00:53:42;18.40;;;5.97;;
64615;SDS011;51027;42.162;24.754;2022-08-21T00:56:10;18.05;;;6.03;;
64615;SDS011;51027;42.162;24.754;2022-08-21T00:58:38;16.80;;;5.82;;
64615;SDS011;51027;42.162;24.754;2022-08-21T01:01:07;18.88;;;5.88;;
64615;SDS011;51027;42.162;24.754;2022-08-21T01:03:33;18.38;;;6.13;;
64615;SDS011;51027;42.162;24.754;2022-08-21T01:06:03;16.27;;;5.50;;
64615;SDS011;51027;42.162;24.754;2022-08-21T01:08:30;16.13;;;6.25;;
64615;SDS011;51027;42.162;24.754;2022-08-21T01:10:56;20.45;;;7.22;;
64615;SDS011;51027;42.162;24.754;2022-08-21T01:13:23;17.17;;;5.75;;
64615;SDS011;51027;42.162;24.754;2022-08-21T01:15:55;17.83;;;6.63;;
64615;SDS011;51027;42.162;24.754;2022-08-21T01:18:24;16.83;;;5.90;;
64615;SDS011;51027;42.162;24.754;2022-08-21T01:21:13;17.77;;;6.18;;
64615;SDS011;51027;42.162;24.754;2022-08-21T01:23:39;18.95;;;6.05;;
64615;SDS011;51027;42.162;24.754;2022-08-21T01:26:14;18.30;;;6.20;;
64615;SDS011;51027;42.162;24.754;2022-08-21T01:28:46;17.77;;;5.43;;
64615;SDS011;51027;42.162;24.754;2022-08-21T01:31:21;17.17;;;5.63;;
64615;SDS011;51027;42.162;24.754;2022-08-21T01:33:48;16.33;;;5.35;;
64615;SDS011;51027;42.162;24.754;2022-08-21T01:36:14;18.88;;;6.00;;
64615;SDS011;51027;42.162;24.754;2022-08-21T01:38:39;17.38;;;5.85;;
64615;SDS011;51027;42.162;24.754;2022-08-21T01:41:05;18.08;;;6.05;;
64615;SDS011;51027;42.162;24.754;2022-08-21T01:43:30;16.35;;;5.63;;
64615;SDS011;51027;42.162;24.754;2022-08-21T01:45:56;16.50;;;5.40;;
64615;SDS011;51027;42.162;24.754;2022-08-21T01:48:22;17.40;;;5.43;;
64615;SDS011;51027;42.162;24.754;2022-08-21T01:50:47;15.48;;;5.45;;
64615;SDS011;51027;42.162;24.754;2022-08-21T01:53:13;19.80;;;5.25;;
64615;SDS011;51027;42.162;24.754;2022-08-21T01:55:40;17.08;;;4.90;;
64615;SDS011;51027;42.162;24.754;2022-08-21T01:58:06;17.27;;;4.78;;
64615;SDS011;51027;42.162;24.754;2022-08-21T02:00:32;19.80;;;5.55;;
64615;SDS011;51027;42.162;24.754;2022-08-21T02:02:58;17.70;;;5.18;;
64615;SDS011;51027;42.162;24.754;2022-08-21T02:05:24;17.83;;;4.90;;
64615;SDS011;51027;42.162;24.754;2022-08-21T02:07:51;17.90;;;5.80;;
64615;SDS011;51027;42.162;24.754;2022-08-21T02:10:20;17.58;;;6.13;;
64615;SDS011;51027;42.162;24.754;2022-08-21T02:12:51;16.42;;;6.28;;
64615;SDS011;51027;42.162;24.754;2022-08-21T02:15:17;17.63;;;7.03;;
64615;SDS011;51027;42.162;24.754;2022-08-21T02:17:47;17.10;;;6.20;;
64615;SDS011;51027;42.162;24.754;2022-08-21T02:20:18;18.23;;;7.07;;
64615;SDS011;51027;42.162;24.754;2022-08-21T02:22:46;18.50;;;7.18;;
64615;SDS011;51027;42.162;24.754;2022-08-21T02:25:11;22.02;;;7.40;;
64615;SDS011;51027;42.162;24.754;2022-08-21T02:27:42;19.73;;;6.80;;
64615;SDS011;51027;42.162;24.754;2022-08-21T02:30:14;18.10;;;7.28;;
64615;SDS011;51027;42.162;24.754;2022-08-21T02:32:42;18.42;;;6.80;;
64615;SDS011;51027;42.162;24.754;2022-08-21T02:35:09;22.70;;;9.27;;
64615;SDS011;51027;42.162;24.754;2022-08-21T02:37:46;21.13;;;8.18;;
64615;SDS011;51027;42.162;24.754;2022-08-21T02:40:21;20.17;;;7.80;;
64615;SDS011;51027;42.162;24.754;2022-08-21T02:42:49;20.70;;;8.10;;
64615;SDS011;51027;42.162;24.754;2022-08-21T02:45:15;18.40;;;7.57;;
64615;SDS011;51027;42.162;24.754;2022-08-21T02:47:52;18.38;;;7.35;;
64615;SDS011;51027;42.162;24.754;2022-08-21T02:50:22;19.08;;;7.97;;
64615;SDS011;51027;42.162;24.754;2022-08-21T02:52:50;21.42;;;8.55;;
64615;SDS011;51027;42.162;24.754;2022-08-21T02:55:18;22.45;;;8.25;;
64615;SDS011;51027;42.162;24.754;2022-08-21T02:57:46;20.92;;;8.48;;
64615;SDS011;51027;42.162;24.754;2022-08-21T03:00:13;19.27;;;6.97;;
64615;SDS011;51027;42.162;24.754;2022-08-21T03:02:39;19.30;;;8.25;;
64615;SDS011;51027;42.162;24.754;2022-08-21T03:05:06;22.98;;;9.52;;
64615;SDS011;51027;42.162;24.754;2022-08-21T03:07:35;20.95;;;8.73;;
64615;SDS011;51027;42.162;24.754;2022-08-21T03:10:01;22.10;;;8.70;;
64615;SDS011;51027;42.162;24.754;2022-08-21T03:12:27;19.92;;;8.40;;
64615;SDS011;51027;42.162;24.754;2022-08-21T03:14:53;23.50;;;8.65;;
64615;SDS011;51027;42.162;24.754;2022-08-21T03:17:19;20.08;;;8.35;;
64615;SDS011;51027;42.162;24.754;2022-08-21T03:19:44;20.52;;;8.25;;
64615;SDS011;51027;42.162;24.754;2022-08-21T03:22:10;20.90;;;9.20;;
64615;SDS011;51027;42.162;24.754;2022-08-21T03:24:35;20.45;;;8.93;;
64615;SDS011;51027;42.162;24.754;2022-08-21T03:27:01;18.75;;;8.13;;
64615;SDS011;51027;42.162;24.754;2022-08-21T03:29:27;19.42;;;7.63;;
64615;SDS011;51027;42.162;24.754;2022-08-21T03:31:52;19.95;;;7.68;;
64615;SDS011;51027;42.162;24.754;2022-08-21T03:34:19;20.63;;;9.25;;
64615;SDS011;51027;42.162;24.754;2022-08-21T03:36:46;21.83;;;9.05;;
64615;SDS011;51027;42.162;24.754;2022-08-21T03:39:13;21.77;;;9.27;;
64615;SDS011;51027;42.162;24.754;2022-08-21T03:41:40;24.30;;;10.07;;
64615;SDS011;51027;42.162;24.754;2022-08-21T03:44:06;22.85;;;9.45;;
64615;SDS011;51027;42.162;24.754;2022-08-21T03:46:32;18.33;;;8.35;;
64615;SDS011;51027;42.162;24.754;2022-08-21T03:48:57;19.77;;;8.02;;
64615;SDS011;51027;42.162;24.754;2022-08-21T03:51:23;19.17;;;7.60;;
64615;SDS011;51027;42.162;24.754;2022-08-21T03:53:49;19.25;;;8.30;;
64615;SDS011;51027;42.162;24.754;2022-08-21T03:56:15;18.75;;;8.20;;
64615;SDS011;51027;42.162;24.754;2022-08-21T03:58:41;19.02;;;7.53;;
64615;SDS011;51027;42.162;24.754;2022-08-21T04:01:07;22.55;;;8.43;;
64615;SDS011;51027;42.162;24.754;2022-08-21T04:03:37;20.65;;;9.00;;
64615;SDS011;51027;42.162;24.754;2022-08-21T04:06:03;19.65;;;8.38;;
64615;SDS011;51027;42.162;24.754;2022-08-21T04:08:29;21.25;;;9.13;;
64615;SDS011;51027;42.162;24.754;2022-08-21T04:10:56;20.88;;;7.93;;
64615;SDS011;51027;42.162;24.754;2022-08-21T04:13:23;21.65;;;8.88;;
64615;SDS011;51027;42.162;24.754;2022-08-21T04:15:51;19.60;;;8.57;;
64615;SDS011;51027;42.162;24.754;2022-08-21T04:18:17;21.73;;;8.85;;
64615;SDS011;51027;42.162;24.754;2022-08-21T04:20:43;19.10;;;7.85;;
64615;SDS011;51027;42.162;24.754;2022-08-21T04:23:11;23.75;;;8.43;;
64615;SDS011;51027;42.162;24.754;2022-08-21T04:25:37;22.45;;;9.65;;
64615;SDS011;51027;42.162;24.754;2022-08-21T04:28:02;20.23;;;8.75;;
64615;SDS011;51027;42.162;24.754;2022-08-21T04:30:28;18.55;;;7.90;;
64615;SDS011;51027;42.162;24.754;2022-08-21T04:32:54;21.05;;;8.25;;
64615;SDS011;51027;42.162;24.754;2022-08-21T04:35:22;20.85;;;8.45;;
64615;SDS011;51027;42.162;24.754;2022-08-21T04:37:48;21.88;;;9.65;;
64615;SDS011;51027;42.162;24.754;2022-08-21T04:40:15;22.10;;;10.18;;
64615;SDS011;51027;42.162;24.754;2022-08-21T04:42:46;23.00;;;9.05;;
64615;SDS011;51027;42.162;24.754;2022-08-21T04:45:18;21.25;;;8.45;;
64615;SDS011;51027;42.162;24.754;2022-08-21T04:47:47;20.58;;;9.05;;
64615;SDS011;51027;42.162;24.754;2022-08-21T04:50:14;19.17;;;9.25;;
64615;SDS011;51027;42.162;24.754;2022-08-21T04:52:39;21.08;;;9.18;;
64615;SDS011;51027;42.162;24.754;2022-08-21T04:55:05;24.23;;;9.25;;
64615;SDS011;51027;42.162;24.754;2022-08-21T04:57:33;23.05;;;9.63;;
64615;SDS011;51027;42.162;24.754;2022-08-21T04:59:59;22.13;;;9.05;;
64615;SDS011;51027;42.162;24.754;2022-08-21T05:02:25;20.67;;;9.20;;
64615;SDS011;51027;42.162;24.754;2022-08-21T05:04:51;20.05;;;9.80;;
64615;SDS011;51027;42.162;24.754;2022-08-21T05:07:20;23.38;;;10.73;;
64615;SDS011;51027;42.162;24.754;2022-08-21T05:12:14;21.83;;;9.55;;
64615;SDS011;51027;42.162;24.754;2022-08-21T05:14:40;20.40;;;9.23;;
64615;SDS011;51027;42.162;24.754;2022-08-21T05:17:07;18.80;;;8.60;;
64615;SDS011;51027;42.162;24.754;2022-08-21T05:19:33;21.85;;;9.73;;
64615;SDS011;51027;42.162;24.754;2022-08-21T05:21:59;19.17;;;8.73;;
64615;SDS011;51027;42.162;24.754;2022-08-21T05:24:26;21.55;;;8.80;;
64615;SDS011;51027;42.162;24.754;2022-08-21T05:26:52;21.73;;;9.00;;
64615;SDS011;51027;42.162;24.754;2022-08-21T05:29:18;22.00;;;9.40;;
64615;SDS011;51027;42.162;24.754;2022-08-21T05:31:44;19.10;;;7.72;;
64615;SDS011;51027;42.162;24.754;2022-08-21T05:34:14;21.73;;;8.45;;
64615;SDS011;51027;42.162;24.754;2022-08-21T05:36:44;23.33;;;9.38;;
64615;SDS011;51027;42.162;24.754;2022-08-21T05:39:30;22.85;;;8.93;;
64615;SDS011;51027;42.162;24.754;2022-08-21T05:41:55;19.23;;;9.18;;
64615;SDS011;51027;42.162;24.754;2022-08-21T05:44:21;19.13;;;8.60;;
64615;SDS011;51027;42.162;24.754;2022-08-21T05:46:46;22.30;;;8.45;;
64615;SDS011;51027;42.162;24.754;2022-08-21T05:49:12;20.92;;;7.93;;
64615;SDS011;51027;42.162;24.754;2022-08-21T05:51:39;18.55;;;9.15;;
64615;SDS011;51027;42.162;24.754;2022-08-21T05:54:05;23.48;;;9.20;;
64615;SDS011;51027;42.162;24.754;2022-08-21T05:56:31;22.35;;;9.98;;
64615;SDS011;51027;42.162;24.754;2022-08-21T05:58:57;20.15;;;8.85;;
64615;SDS011;51027;42.162;24.754;2022-08-21T06:01:23;22.77;;;8.73;;
64615;SDS011;51027;42.162;24.754;2022-08-21T06:03:48;20.90;;;7.75;;
64615;SDS011;51027;42.162;24.754;2022-08-21T06:06:14;20.13;;;8.70;;
64615;SDS011;51027;42.162;24.754;2022-08-21T06:08:39;19.70;;;8.15;;
64615;SDS011;51027;42.162;24.754;2022-08-21T06:11:05;23.05;;;8.27;;
64615;SDS011;51027;42.162;24.754;2022-08-21T06:13:31;19.52;;;8.45;;
64615;SDS011;51027;42.162;24.754;2022-08-21T06:16:05;20.98;;;8.30;;
64615;SDS011;51027;42.162;24.754;2022-08-21T06:18:36;23.98;;;8.57;;
64615;SDS011;51027;42.162;24.754;2022-08-21T06:21:03;19.58;;;8.75;;
64615;SDS011;51027;42.162;24.754;2022-08-21T06:23:29;20.60;;;8.60;;
64615;SDS011;51027;42.162;24.754;2022-08-21T06:25:55;24.15;;;9.45;;
64615;SDS011;51027;42.162;24.754;2022-08-21T06:28:21;20.98;;;9.13;;
64615;SDS011;51027;42.162;24.754;2022-08-21T06:30:47;21.27;;;9.48;;
64615;SDS011;51027;42.162;24.754;2022-08-21T06:33:12;21.90;;;9.32;;
64615;SDS011;51027;42.162;24.754;2022-08-21T06:35:38;20.63;;;8.60;;
64615;SDS011;51027;42.162;24.754;2022-08-21T06:38:03;19.45;;;8.57;;
64615;SDS011;51027;42.162;24.754;2022-08-21T06:40:29;19.35;;;8.77;;
64615;SDS011;51027;42.162;24.754;2022-08-21T06:42:55;22.23;;;8.20;;
64615;SDS011;51027;42.162;24.754;2022-08-21T06:45:23;19.73;;;8.50;;
64615;SDS011;51027;42.162;24.754;2022-08-21T06:47:48;22.10;;;8.48;;
64615;SDS011;51027;42.162;24.754;2022-08-21T06:50:14;21.27;;;8.23;;
64615;SDS011;51027;42.162;24.754;2022-08-21T06:52:39;18.42;;;7.68;;
64615;SDS011;51027;42.162;24.754;2022-08-21T06:55:06;19.88;;;8.50;;
64615;SDS011;51027;42.162;24.754;2022-08-21T06:57:33;20.63;;;9.07;;
64615;SDS011;51027;42.162;24.754;2022-08-21T06:59:59;23.70;;;9.15;;
64615;SDS011;51027;42.162;24.754;2022-08-21T07:02:25;21.77;;;9.68;;
64615;SDS011;51027;42.162;24.754;2022-08-21T07:04:50;24.23;;;11.13;;
64615;SDS011;51027;42.162;24.754;2022-08-21T07:07:16;24.70;;;10.80;;
64615;SDS011;51027;42.162;24.754;2022-08-21T07:09:42;22.67;;;9.57;;
64615;SDS011;51027;42.162;24.754;2022-08-21T07:12:07;20.58;;;9.32;;
64615;SDS011;51027;42.162;24.754;2022-08-21T07:14:33;22.10;;;9.48;;
64615;SDS011;51027;42.162;24.754;2022-08-21T07:16:59;19.27;;;9.38;;
64615;SDS011;51027;42.162;24.754;2022-08-21T07:19:24;22.13;;;10.68;;
64615;SDS011;51027;42.162;24.754;2022-08-21T07:21:50;25.13;;;9.38;;
64615;SDS011;51027;42.162;24.754;2022-08-21T07:24:16;22.58;;;10.05;;
64615;SDS011;51027;42.162;24.754;2022-08-21T07:26:41;22.77;;;9.63;;
64615;SDS011;51027;42.162;24.754;2022-08-21T07:29:07;23.77;;;9.60;;
64615;SDS011;51027;42.162;24.754;2022-08-21T07:31:32;23.38;;;10.18;;
64615;SDS011;51027;42.162;24.754;2022-08-21T07:33:58;23.33;;;10.30;;
64615;SDS011;51027;42.162;24.754;2022-08-21T07:36:23;23.67;;;10.07;;
64615;SDS011;51027;42.162;24.754;2022-08-21T07:38:49;20.88;;;9.15;;
64615;SDS011;51027;42.162;24.754;2022-08-21T07:41:16;24.33;;;9.23;;
64615;SDS011;51027;42.162;24.754;2022-08-21T07:43:44;19.92;;;8.57;;
64615;SDS011;51027;42.162;24.754;2022-08-21T07:46:10;21.38;;;9.40;;
64615;SDS011;51027;42.162;24.754;2022-08-21T07:48:36;24.88;;;8.60;;
64615;SDS011;51027;42.162;24.754;2022-08-21T07:51:04;43.05;;;26.73;;
64615;SDS011;51027;42.162;24.754;2022-08-21T07:53:33;21.10;;;9.75;;
64615;SDS011;51027;42.162;24.754;2022-08-21T07:55:59;22.40;;;9.68;;
64615;SDS011;51027;42.162;24.754;2022-08-21T07:58:25;21.00;;;9.85;;
64615;SDS011;51027;42.162;24.754;2022-08-21T08:00:50;22.13;;;10.20;;
64615;SDS011;51027;42.162;24.754;2022-08-21T08:03:16;20.17;;;9.10;;
64615;SDS011;51027;42.162;24.754;2022-08-21T08:05:41;21.42;;;10.10;;
64615;SDS011;51027;42.162;24.754;2022-08-21T08:08:07;22.90;;;9.38;;
64615;SDS011;51027;42.162;24.754;2022-08-21T08:10:32;24.52;;;9.65;;
64615;SDS011;51027;42.162;24.754;2022-08-21T08:12:58;22.05;;;9.05;;
64615;SDS011;51027;42.162;24.754;2022-08-21T08:15:24;23.13;;;9.13;;
64615;SDS011;51027;42.162;24.754;2022-08-21T08:17:51;22.08;;;9.48;;
64615;SDS011;51027;42.162;24.754;2022-08-21T08:20:17;21.65;;;9.30;;
64615;SDS011;51027;42.162;24.754;2022-08-21T08:22:44;23.08;;;9.95;;
64615;SDS011;51027;42.162;24.754;2022-08-21T08:25:11;22.13;;;10.05;;
64615;SDS011;51027;42.162;24.754;2022-08-21T08:27:38;23.05;;;10.77;;
64615;SDS011;51027;42.162;24.754;2022-08-21T08:30:05;20.90;;;9.10;;
64615;SDS011;51027;42.162;24.754;2022-08-21T08:32:32;24.13;;;10.05;;
64615;SDS011;51027;42.162;24.754;2022-08-21T08:34:58;24.88;;;9.65;;
64615;SDS011;51027;42.162;24.754;2022-08-21T08:37:24;21.17;;;9.35;;
64615;SDS011;51027;42.162;24.754;2022-08-21T08:39:49;21.02;;;8.70;;
64615;SDS011;51027;42.162;24.754;2022-08-21T08:42:17;21.80;;;8.68;;
64615;SDS011;51027;42.162;24.754;2022-08-21T08:44:49;27.17;;;12.35;;
64615;SDS011;51027;42.162;24.754;2022-08-21T08:47:22;21.27;;;8.90;;
64615;SDS011;51027;42.162;24.754;2022-08-21T08:52:46;20.50;;;8.68;;
64615;SDS011;51027;42.162;24.754;2022-08-21T08:55:20;20.52;;;8.77;;
64615;SDS011;51027;42.162;24.754;2022-08-21T08:57:48;23.67;;;10.05;;
64615;SDS011;51027;42.162;24.754;2022-08-21T09:00:17;29.27;;;11.00;;
64615;SDS011;51027;42.162;24.754;2022-08-21T09:02:45;23.25;;;10.00;;
64615;SDS011;51027;42.162;24.754;2022-08-21T09:05:18;23.52;;;9.00;;
64615;SDS011;51027;42.162;24.754;2022-08-21T09:08:15;21.85;;;9.70;;
64615;SDS011;51027;42.162;24.754;2022-08-21T09:11:13;26.92;;;10.77;;
64615;SDS011;51027;42.162;24.754;2022-08-21T09:21:35;22.42;;;9.40;;
64615;SDS011;51027;42.162;24.754;2022-08-21T09:27:00;23.65;;;9.68;;
64615;SDS011;51027;42.162;24.754;2022-08-21T09:29:33;21.48;;;9.18;;
64615;SDS011;51027;42.162;24.754;2022-08-21T09:32:02;32.65;;;13.23;;
64615;SDS011;51027;42.162;24.754;2022-08-21T09:34:34;21.38;;;9.57;;
64615;SDS011;51027;42.162;24.754;2022-08-21T09:37:00;24.90;;;9.63;;
64615;SDS011;51027;42.162;24.754;2022-08-21T09:39:30;21.75;;;9.30;;
64615;SDS011;51027;42.162;24.754;2022-08-21T09:42:03;23.13;;;9.85;;
64615;SDS011;51027;42.162;24.754;2022-08-21T09:44:32;21.05;;;9.18;;
64615;SDS011;51027;42.162;24.754;2022-08-21T09:47:01;22.30;;;8.32;;
64615;SDS011;51027;42.162;24.754;2022-08-21T09:49:30;23.05;;;9.45;;
64615;SDS011;51027;42.162;24.754;2022-08-21T09:51:57;18.95;;;8.48;;
64615;SDS011;51027;42.162;24.754;2022-08-21T09:54:34;20.60;;;9.05;;
64615;SDS011;51027;42.162;24.754;2022-08-21T10:00:25;18.42;;;7.80;;
64615;SDS011;51027;42.162;24.754;2022-08-21T10:05:34;19.10;;;8.52;;
64615;SDS011;51027;42.162;24.754;2022-08-21T10:08:00;23.63;;;10.00;;
64615;SDS011;51027;42.162;24.754;2022-08-21T10:10:28;22.45;;;9.07;;
64615;SDS011;51027;42.162;24.754;2022-08-21T10:21:05;22.75;;;8.25;;
64615;SDS011;51027;42.162;24.754;2022-08-21T10:32:20;20.17;;;8.97;;
64615;SDS011;51027;42.162;24.754;2022-08-21T10:40:24;20.88;;;8.75;;
64615;SDS011;51027;42.162;24.754;2022-08-21T10:48:34;19.33;;;8.65;;
64615;SDS011;51027;42.162;24.754;2022-08-21T10:51:09;20.98;;;9.10;;
64615;SDS011;51027;42.162;24.754;2022-08-21T10:53:38;21.00;;;9.40;;
64615;SDS011;51027;42.162;24.754;2022-08-21T10:58:42;20.15;;;9.50;;
64615;SDS011;51027;42.162;24.754;2022-08-21T11:01:21;24.83;;;11.50;;
64615;SDS011;51027;42.162;24.754;2022-08-21T11:03:58;27.02;;;13.73;;
64615;SDS011;51027;42.162;24.754;2022-08-21T11:06:38;25.23;;;12.75;;
64615;SDS011;51027;42.162;24.754;2022-08-21T11:09:14;24.90;;;12.90;;
64615;SDS011;51027;42.162;24.754;2022-08-21T11:11:45;25.05;;;11.57;;
64615;SDS011;51027;42.162;24.754;2022-08-21T11:14:33;25.17;;;11.60;;
64615;SDS011;51027;42.162;24.754;2022-08-21T11:19:38;22.10;;;11.15;;
64615;SDS011;51027;42.162;24.754;2022-08-21T11:22:18;23.83;;;11.13;;
64615;SDS011;51027;42.162;24.754;2022-08-21T11:25:13;22.00;;;10.07;;
64615;SDS011;51027;42.162;24.754;2022-08-21T11:27:53;20.52;;;9.52;;
64615;SDS011;51027;42.162;24.754;2022-08-21T11:30:24;22.35;;;9.77;;
64615;SDS011;51027;42.162;24.754;2022-08-21T11:46:32;20.08;;;8.68;;
64615;SDS011;51027;42.162;24.754;2022-08-21T11:54:34;19.52;;;8.55;;
64615;SDS011;51027;42.162;24.754;2022-08-21T11:57:03;21.08;;;9.07;;
64615;SDS011;51027;42.162;24.754;2022-08-21T12:02:28;18.35;;;7.95;;
64615;SDS011;51027;42.162;24.754;2022-08-21T12:05:04;20.92;;;8.60;;
64615;SDS011;51027;42.162;24.754;2022-08-21T12:10:08;21.45;;;8.95;;
64615;SDS011;51027;42.162;24.754;2022-08-21T12:12:38;20.33;;;9.35;;
64615;SDS011;51027;42.162;24.754;2022-08-21T12:18:06;20.13;;;8.15;;
64615;SDS011;51027;42.162;24.754;2022-08-21T12:23:28;21.05;;;8.50;;
64615;SDS011;51027;42.162;24.754;2022-08-21T12:28:27;24.02;;;9.65;;
64615;SDS011;51027;42.162;24.754;2022-08-21T12:30:55;20.42;;;9.00;;
64615;SDS011;51027;42.162;24.754;2022-08-21T12:33:32;20.23;;;9.40;;
64615;SDS011;51027;42.162;24.754;2022-08-21T12:36:04;21.95;;;9.02;;
64615;SDS011;51027;42.162;24.754;2022-08-21T12:41:17;23.67;;;9.88;;
64615;SDS011;51027;42.162;24.754;2022-08-21T12:43:49;20.15;;;9.23;;
64615;SDS011;51027;42.162;24.754;2022-08-21T12:46:37;20.90;;;10.60;;
64615;SDS011;51027;42.162;24.754;2022-08-21T12:51:54;24.70;;;11.75;;
64615;SDS011;51027;42.162;24.754;2022-08-21T12:54:36;22.67;;;10.05;;
64615;SDS011;51027;42.162;24.754;2022-08-21T12:57:04;21.00;;;9.68;;
64615;SDS011;51027;42.162;24.754;2022-08-21T12:59:32;19.67;;;9.55;;
64615;SDS011;51027;42.162;24.754;2022-08-21T13:02:03;23.75;;;9.38;;
64615;SDS011;51027;42.162;24.754;2022-08-21T13:04:39;20.63;;;9.30;;
64615;SDS011;51027;42.162;24.754;2022-08-21T13:07:07;20.65;;;9.77;;
64615;SDS011;51027;42.162;24.754;2022-08-21T13:09:39;19.80;;;8.60;;
64615;SDS011;51027;42.162;24.754;2022-08-21T13:12:11;19.60;;;8.90;;
64615;SDS011;51027;42.162;24.754;2022-08-21T13:14:38;24.92;;;9.82;;
64615;SDS011;51027;42.162;24.754;2022-08-21T13:17:06;24.23;;;10.57;;
64615;SDS011;51027;42.162;24.754;2022-08-21T13:19:33;22.27;;;9.70;;
64615;SDS011;51027;42.162;24.754;2022-08-21T13:21:59;22.17;;;9.20;;
64615;SDS011;51027;42.162;24.754;2022-08-21T13:24:27;19.50;;;9.38;;
64615;SDS011;51027;42.162;24.754;2022-08-21T13:26:54;19.10;;;9.10;;
64615;SDS011;51027;42.162;24.754;2022-08-21T13:29:21;20.08;;;8.90;;
64615;SDS011;51027;42.162;24.754;2022-08-21T13:31:53;20.67;;;9.90;;
64615;SDS011;51027;42.162;24.754;2022-08-21T13:34:22;20.80;;;9.00;;
64615;SDS011;51027;42.162;24.754;2022-08-21T13:36:51;18.40;;;8.48;;
64615;SDS011;51027;42.162;24.754;2022-08-21T13:39:19;21.02;;;8.48;;
64615;SDS011;51027;42.162;24.754;2022-08-21T13:41:48;19.48;;;8.45;;
64615;SDS011;51027;42.162;24.754;2022-08-21T13:46:41;16.95;;;7.85;;
64615;SDS011;51027;42.162;24.754;2022-08-21T13:49:06;17.00;;;7.90;;
64615;SDS011;51027;42.162;24.754;2022-08-21T13:51:33;18.50;;;7.70;;
64615;SDS011;51027;42.162;24.754;2022-08-21T13:54:00;20.52;;;7.68;;
64615;SDS011;51027;42.162;24.754;2022-08-21T13:56:30;21.00;;;8.18;;
64615;SDS011;51027;42.162;24.754;2022-08-21T13:58:58;18.15;;;7.93;;
64615;SDS011;51027;42.162;24.754;2022-08-21T14:01:36;18.05;;;7.55;;
64615;SDS011;51027;42.162;24.754;2022-08-21T14:04:17;17.15;;;7.82;;
64615;SDS011;51027;42.162;24.754;2022-08-21T14:06:45;17.38;;;7.68;;
64615;SDS011;51027;42.162;24.754;2022-08-21T14:09:12;18.55;;;8.40;;
64615;SDS011;51027;42.162;24.754;2022-08-21T14:11:41;17.80;;;7.60;;
64615;SDS011;51027;42.162;24.754;2022-08-21T14:14:14;17.17;;;6.93;;
64615;SDS011;51027;42.162;24.754;2022-08-21T14:16:55;18.75;;;7.63;;
64615;SDS011;51027;42.162;24.754;2022-08-21T14:19:23;18.27;;;7.30;;
64615;SDS011;51027;42.162;24.754;2022-08-21T14:22:00;16.45;;;6.97;;
64615;SDS011;51027;42.162;24.754;2022-08-21T14:24:27;18.83;;;9.60;;
64615;SDS011;51027;42.162;24.754;2022-08-21T14:26:56;21.23;;;10.38;;
64615;SDS011;51027;42.162;24.754;2022-08-21T14:29:34;18.85;;;8.00;;
64615;SDS011;51027;42.162;24.754;2022-08-21T14:32:09;17.20;;;7.40;;
64615;SDS011;51027;42.162;24.754;2022-08-21T14:34:38;16.38;;;8.07;;
64615;SDS011;51027;42.162;24.754;2022-08-21T14:37:03;17.83;;;7.63;;
64615;SDS011;51027;42.162;24.754;2022-08-21T14:39:29;16.63;;;7.15;;
64615;SDS011;51027;42.162;24.754;2022-08-21T14:41:54;17.17;;;7.97;;
64615;SDS011;51027;42.162;24.754;2022-08-21T14:44:22;19.67;;;8.52;;
64615;SDS011;51027;42.162;24.754;2022-08-21T14:46:48;21.20;;;7.63;;
64615;SDS011;51027;42.162;24.754;2022-08-21T14:49:14;17.08;;;6.97;;
64615;SDS011;51027;42.162;24.754;2022-08-21T14:51:39;18.77;;;7.97;;
64615;SDS011;51027;42.162;24.754;2022-08-21T14:54:05;17.95;;;8.98;;
64615;SDS011;51027;42.162;24.754;2022-08-21T14:56:32;18.48;;;8.02;;
64615;SDS011;51027;42.162;24.754;2022-08-21T14:59:00;21.67;;;9.05;;
64615;SDS011;51027;42.162;24.754;2022-08-21T15:01:29;20.20;;;8.75;;
64615;SDS011;51027;42.162;24.754;2022-08-21T15:03:56;17.80;;;8.07;;
64615;SDS011;51027;42.162;24.754;2022-08-21T15:06:21;18.88;;;8.70;;
64615;SDS011;51027;42.162;24.754;2022-08-21T15:08:47;19.23;;;9.27;;
64615;SDS011;51027;42.162;24.754;2022-08-21T15:11:16;20.23;;;9.00;;
64615;SDS011;51027;42.162;24.754;2022-08-21T15:13:44;19.38;;;8.70;;
64615;SDS011;51027;42.162;24.754;2022-08-21T15:16:10;22.75;;;9.32;;
64615;SDS011;51027;42.162;24.754;2022-08-21T15:18:36;19.20;;;9.23;;
64615;SDS011;51027;42.162;24.754;2022-08-21T15:21:02;20.42;;;10.05;;
64615;SDS011;51027;42.162;24.754;2022-08-21T15:23:28;24.10;;;9.52;;
64615;SDS011;51027;42.162;24.754;2022-08-21T15:25:53;20.45;;;8.95;;
64615;SDS011;51027;42.162;24.754;2022-08-21T15:28:22;18.60;;;8.25;;
64615;SDS011;51027;42.162;24.754;2022-08-21T15:30:49;19.67;;;9.48;;
64615;SDS011;51027;42.162;24.754;2022-08-21T15:33:15;18.58;;;8.63;;
64615;SDS011;51027;42.162;24.754;2022-08-21T15:35:40;21.42;;;10.73;;
64615;SDS011;51027;42.162;24.754;2022-08-21T15:38:06;22.27;;;9.15;;
64615;SDS011;51027;42.162;24.754;2022-08-21T15:40:32;22.45;;;8.00;;
64615;SDS011;51027;42.162;24.754;2022-08-21T15:43:00;18.40;;;8.05;;
64615;SDS011;51027;42.162;24.754;2022-08-21T15:45:27;19.80;;;7.88;;
64615;SDS011;51027;42.162;24.754;2022-08-21T15:47:52;19.77;;;8.45;;
64615;SDS011;51027;42.162;24.754;2022-08-21T15:50:19;17.33;;;7.55;;
64615;SDS011;51027;42.162;24.754;2022-08-21T15:52:45;18.58;;;8.75;;
64615;SDS011;51027;42.162;24.754;2022-08-21T15:55:11;18.35;;;8.55;;
64615;SDS011;51027;42.162;24.754;2022-08-21T15:57:37;17.90;;;7.78;;
64615;SDS011;51027;42.162;24.754;2022-08-21T16:00:11;16.60;;;7.68;;
64615;SDS011;51027;42.162;24.754;2022-08-21T16:02:41;18.70;;;7.50;;
64615;SDS011;51027;42.162;24.754;2022-08-21T16:05:09;21.95;;;11.82;;